Weiner, AR (72479)

12:43 AM CDT on May 29, 2016 (GMT -0500)
Boward and Wofford | Change Station
CLOSE
Current Station
Personal Weather Station
Location: Waldenburg, AR
Elevation: 243 ft
Nearby Weather Stations

Elev 243 ft 35.57 °N, 90.90 °W | Updated 12 minutes ago

Clear
Clear
71.8 °F
Feels Like 71.8 °F
N
0.0
Wind Variable Wind from WSW
Gusts 0.0 mph

Today
High -- | Low -- °F
--% Chance of Precip.
Yesterday
High -- | Low -- °F
Precip. -- in
5:50 AM 8:12 PM
Waning Gibbous, 53% visible
Pressure 30.04 in
Visibility 10.0 miles
Clouds Clear
Dew Point 69 °F
Humidity 91%
Rainfall 0.00 in
Snow Depth Not available.
UV 0 out of 12
Pollen 6.4 out of 12
Ozone Good
PM2.5 Moderate
Flu Activity Sporadic
METAR KM19 290456Z AUTO 24004KT 10SM CLR 22/21 A3005 RMK AO2 T02220211 SLP172

More Conditions Fewer Conditions

Pressure 30.04 in
Visibility 10.0 miles
Clouds Clear
Dew Point 69 °F
Humidity 91%
Rainfall 0.00 in
Snow Depth Not available.
UV 0 out of 12
Pollen 6.4 out of 12
Ozone Good
PM2.5 Moderate
Flu Activity Sporadic
METAR KM19 290456Z AUTO 24004KT 10SM CLR 22/21 A3005 RMK AO2 T02220211 SLP172

More Conditions Fewer Conditions

10-Day Weather Forecast

Almanac

Astronomy

May. 29, 2016 Rise Set
Actual Time 5:50 AM CDT 8:12 PM CDT
Civil Twilight 5:20 AM CDT 8:41 PM CDT
Nautical Twilight 4:44 AM CDT 9:18 PM CDT
Astronomical Twilight 4:05 AM CDT 9:57 PM CDT
Moon 1:27 AM CDT 1:05 PM CDT
Length of Visible Light 15h 21m
Length of Day
14h 22m
Tomorrow will be 1m 2s longer.
Waning Gibbous, 53% of the Moon is Illuminated
Today
Waning Gibbous
May 29
Last Quarter
Jun 4
New
Jun 12
First Quarter
Jun 20
Full

Yesterday's Extremes

State Highs State Lows

Community

WunderPhotos

Upload Photos

1,914,355 photos uploaded!

Nearby

Air Quality

  Air Quality AQ Index Pollutant
Yesterday Good
OZONE
Yesterday Good
PM2.5
Current Moderate
PM2.5
Current Good
OZONE
Saturday Moderate
PM2.5
Saturday Good
OZONE
Sunday Moderate
OZONE
Sunday Moderate
PM2.5

Snow Depth

Station Depth Elevation
No new snow has been reported.

Earthquake Activity

City Distance Mag. Time & Date
Caruthersville, Missouri 75 miles 2.5 8:11 PM CDT
2016-05-27
Minimum magnitude displayed is 2.5.

Coastal Water Temperatures

Place Temperature
No Stations Reporting

Nearby Weather Stations